Time;durP1;ratioP1;P1;durP2;ratioP2;P2;SDS_P1;SDS_P2;PMS_P1;PMS_P2;Temp;Humidity;BMP_temperature;BMP_pressure;BME280_temperature;BME280_humidity;BME280_pressure;Samples;Min_cycle;Max_cycle;Signal;HPM_P1;HPM_P2
2021/04/23 00:00:52;;;;;;;11.98;3.08;;;;;;;7.38;43.28;101942.28;4408931;32;20022;-74
2021/04/23 00:08:35;;;;;;;10.20;3.10;;;;;;;7.53;44.02;101928.03;3986108;32;15024262;-74
2021/04/23 00:11:06;;;;;;;9.90;3.65;;;;;;;7.53;44.02;101928.03;4437594;32;20067;-73
2021/04/23 00:13:32;;;;;;;9.82;3.10;;;;;;;7.06;45.14;101944.03;4434183;32;20206;-74
2021/04/23 00:15:58;;;;;;;7.10;3.00;;;;;;;7.03;45.29;101942.00;4435091;32;20410;-74
2021/04/23 00:18:24;;;;;;;11.27;3.45;;;;;;;6.99;45.55;101938.34;4436884;32;20080;-73
2021/04/23 00:20:50;;;;;;;11.23;3.05;;;;;;;6.95;45.65;101945.91;4434449;32;20028;-74
2021/04/23 00:23:16;;;;;;;9.73;3.53;;;;;;;6.89;45.79;101953.84;4439419;32;20112;-74
2021/04/23 00:26:22;;;;;;;12.65;3.05;;;;;;;6.87;45.84;101947.03;4438826;32;20482;-74
2021/04/23 00:28:48;;;;;;;9.52;2.75;;;;;;;6.87;45.67;101955.44;4429370;32;20034;-74
2021/04/23 00:31:14;;;;;;;7.35;2.20;;;;;;;6.81;45.40;101949.34;4433656;32;20068;-73
2021/04/23 00:33:40;;;;;;;8.77;2.60;;;;;;;6.78;45.46;101943.75;4435599;32;20086;-73
2021/04/23 00:36:07;;;;;;;8.10;2.87;;;;;;;6.70;45.83;101942.06;4438763;32;20539;-74
2021/04/23 00:38:35;;;;;;;12.13;3.05;;;;;;;6.61;46.13;101956.34;4435374;32;20116;-74
2021/04/23 00:43:45;;;;;;;9.30;2.78;;;;;;;6.90;45.60;101952.66;3985775;32;15024603;-74
2021/04/23 00:46:15;;;;;;;6.55;2.95;;;;;;;6.90;45.60;101952.66;4438584;32;20521;-74
2021/04/23 00:48:45;;;;;;;7.57;2.60;;;;;;;6.39;45.81;101953.69;4442444;32;20063;-74
2021/04/23 00:51:16;;;;;;;12.25;3.00;;;;;;;6.40;45.89;101947.69;4441473;32;20034;-74
2021/04/23 00:53:47;;;;;;;9.45;2.37;;;;;;;6.29;46.46;101954.34;4442732;32;20084;-73
2021/04/23 00:56:16;;;;;;;6.32;2.60;;;;;;;6.22;46.86;101960.66;4441344;32;20149;-73
2021/04/23 00:58:43;;;;;;;9.20;3.33;;;;;;;6.17;47.17;101962.97;4438313;32;20083;-73
2021/04/23 01:01:14;;;;;;;10.52;2.47;;;;;;;6.17;47.17;101968.56;4436196;32;20038;-73
2021/04/23 01:03:41;;;;;;;8.90;2.62;;;;;;;6.03;47.35;101960.78;4424733;32;20346;-73
2021/04/23 01:06:13;;;;;;;7.18;2.55;;;;;;;6.02;47.06;101954.38;4424891;32;20073;-73
2021/04/23 01:08:39;;;;;;;8.68;3.03;;;;;;;5.95;47.39;101948.72;4423062;32;20152;-74
2021/04/23 01:11:05;;;;;;;10.63;2.75;;;;;;;5.82;48.00;101946.53;4424869;32;20091;-74
2021/04/23 01:13:31;;;;;;;9.18;2.35;;;;;;;5.76;48.50;101946.03;4422930;32;20074;-75
2021/04/23 01:16:00;;;;;;;13.48;2.50;;;;;;;5.76;48.42;101946.03;4426200;32;20130;-73
2021/04/23 01:18:26;;;;;;;6.10;2.25;;;;;;;5.74;48.74;101942.78;4422199;32;20069;-74
2021/04/23 01:21:14;;;;;;;8.20;2.37;;;;;;;5.66;48.96;101943.88;4425332;32;20386;-74
2021/04/23 01:23:43;;;;;;;9.15;2.42;;;;;;;5.65;49.16;101938.66;4425841;32;20042;-73
2021/04/23 01:26:12;;;;;;;5.65;2.53;;;;;;;5.62;49.37;101945.00;4423268;32;20025;-74
2021/04/23 01:28:39;;;;;;;10.85;2.80;;;;;;;5.54;49.28;101951.66;4422154;32;20089;-74
2021/04/23 01:31:08;;;;;;;6.87;2.40;;;;;;;5.45;49.44;101951.09;4423741;32;20026;-74
2021/04/23 01:33:37;;;;;;;11.10;2.85;;;;;;;5.46;49.25;101947.16;4424793;32;20124;-74
2021/04/23 01:36:04;;;;;;;7.50;2.05;;;;;;;5.45;49.36;101951.09;4447167;32;20089;-73
2021/04/23 01:38:29;;;;;;;9.60;2.85;;;;;;;5.42;49.34;101952.66;4423189;32;20034;-73
2021/04/23 01:40:55;;;;;;;7.15;2.05;;;;;;;5.39;49.43;101956.22;4421671;32;20122;-74
2021/04/23 01:43:22;;;;;;;8.93;2.12;;;;;;;5.40;49.28;101952.22;4425460;32;20070;-74
2021/04/23 01:45:48;;;;;;;12.35;3.08;;;;;;;5.36;49.61;101954.16;4422780;32;20066;-73
2021/04/23 01:48:16;;;;;;;7.85;2.60;;;;;;;5.33;50.25;101956.88;4420910;32;20425;-73
2021/04/23 01:50:43;;;;;;;10.07;2.75;;;;;;;5.29;50.27;101954.06;4423897;32;20406;-74
2021/04/23 01:53:09;;;;;;;7.40;2.35;;;;;;;5.20;50.85;101947.09;4424444;32;20034;-73
2021/04/23 01:55:36;;;;;;;9.60;2.95;;;;;;;5.21;50.64;101948.72;4415933;32;20030;-74
2021/04/23 01:58:02;;;;;;;6.53;2.70;;;;;;;5.21;50.53;101946.72;4412598;32;20093;-74
2021/04/23 02:00:33;;;;;;;9.90;2.00;;;;;;;5.25;50.08;101946.81;4414585;32;20038;-74
2021/04/23 02:03:02;;;;;;;9.30;2.62;;;;;;;5.21;50.02;101954.28;4416019;32;20441;-74
2021/04/23 02:05:28;;;;;;;5.95;1.80;;;;;;;5.22;50.18;101953.13;4413599;32;20030;-74
2021/04/23 02:07:54;;;;;;;7.85;2.00;;;;;;;5.17;50.37;101959.00;4409957;32;20444;-72
2021/04/23 02:10:24;;;;;;;6.37;2.00;;;;;;;5.15;50.49;101958.56;4411837;32;20026;-73
2021/04/23 02:12:50;;;;;;;8.63;1.90;;;;;;;5.16;50.45;101954.63;4413496;32;20038;-73
2021/04/23 02:15:19;;;;;;;12.37;1.87;;;;;;;5.06;50.85;101958.81;4414332;32;20453;-73
2021/04/23 02:17:45;;;;;;;8.38;2.08;;;;;;;5.08;50.95;101959.28;4414288;32;20115;-74
2021/04/23 02:20:17;;;;;;;8.38;1.90;;;;;;;5.03;51.16;101953.19;4414937;32;20134;-73
2021/04/23 02:22:44;;;;;;;7.30;2.25;;;;;;;5.07;50.76;101951.28;4413791;32;20070;-73
2021/04/23 02:25:12;;;;;;;4.22;2.20;;;;;;;5.06;50.60;101969.97;4413855;32;20026;-75
2021/04/23 02:27:38;;;;;;;8.13;2.17;;;;;;;5.07;50.63;101962.44;4414897;32;20030;-74
2021/04/23 02:30:09;;;;;;;7.53;2.17;;;;;;;5.05;50.77;101967.56;4415419;32;20134;-74
2021/04/23 02:32:35;;;;;;;11.00;2.97;;;;;;;5.05;50.87;101962.81;4412942;32;20503;-73
2021/04/23 02:35:03;;;;;;;6.32;1.92;;;;;;;5.02;51.17;101969.13;4413456;32;20413;-73
2021/04/23 02:37:29;;;;;;;8.15;2.30;;;;;;;5.04;51.20;101977.94;4414652;32;20056;-73
2021/04/23 02:39:56;;;;;;;8.85;2.12;;;;;;;5.04;51.41;101968.75;4412677;32;20106;-74
2021/04/23 02:42:22;;;;;;;7.43;2.03;;;;;;;4.96;51.85;101969.78;4413482;32;20061;-74
2021/04/23 02:44:48;;;;;;;10.30;2.45;;;;;;;4.90;52.18;101974.06;4409827;32;20034;-74
2021/04/23 02:47:13;;;;;;;9.55;2.25;;;;;;;4.93;52.01;101971.34;4414336;32;20039;-74
2021/04/23 02:49:39;;;;;;;11.82;1.92;;;;;;;4.88;52.36;101966.06;4412177;32;20063;-73
2021/04/23 02:52:05;;;;;;;10.88;1.80;;;;;;;4.87;52.61;101970.03;4413726;32;20850;-74
2021/04/23 02:54:31;;;;;;;8.90;2.10;;;;;;;4.78;53.06;101977.84;4415713;32;20077;-73
2021/04/23 02:56:57;;;;;;;10.43;1.90;;;;;;;4.81;53.07;101965.13;4410471;32;20114;-75
2021/04/23 02:59:23;;;;;;;5.68;1.70;;;;;;;4.80;53.42;101971.88;4411191;32;20069;-75
2021/04/23 03:01:55;;;;;;;7.82;1.80;;;;;;;4.85;53.46;101972.37;4409617;32;20077;-74
2021/04/23 03:04:22;;;;;;;11.10;2.60;;;;;;;4.80;53.82;101966.31;4411170;32;20062;-73
2021/04/23 03:06:47;;;;;;;13.68;2.00;;;;;;;4.76;54.03;101971.03;4411485;32;21712;-73
2021/04/23 03:09:13;;;;;;;8.13;1.92;;;;;;;4.78;54.07;101966.69;4413749;32;20087;-74
2021/04/23 03:11:41;;;;;;;6.85;2.00;;;;;;;4.76;54.40;101968.22;4411322;32;20116;-73
2021/04/23 03:14:07;;;;;;;8.55;2.15;;;;;;;4.70;54.70;101969.72;4411640;32;20045;-73
2021/04/23 03:16:33;;;;;;;15.13;2.12;;;;;;;4.70;54.65;101970.53;4413339;32;20205;-74
2021/04/23 03:18:59;;;;;;;11.65;2.50;;;;;;;4.66;54.99;101969.63;4413117;32;20074;-73
2021/04/23 03:21:28;;;;;;;11.20;2.30;;;;;;;4.64;55.00;101960.84;4413723;32;20173;-73
2021/04/23 03:23:55;;;;;;;7.45;2.30;;;;;;;4.63;55.19;101958.41;4413077;32;20441;-73
2021/04/23 03:26:23;;;;;;;10.43;1.95;;;;;;;4.60;55.38;101959.94;4414100;32;20059;-73
2021/04/23 03:28:49;;;;;;;10.80;2.58;;;;;;;4.58;55.74;101962.31;4412107;32;20038;-73
2021/04/23 03:31:16;;;;;;;11.18;2.25;;;;;;;4.59;55.71;101958.34;4412016;32;20073;-73
2021/04/23 03:33:42;;;;;;;8.27;2.37;;;;;;;4.61;55.86;101964.38;4413270;32;20033;-73
2021/04/23 03:36:10;;;;;;;8.23;2.62;;;;;;;4.60;56.04;101954.38;4412499;32;20057;-74
2021/04/23 03:38:39;;;;;;;10.23;2.37;;;;;;;4.62;56.33;101957.59;4412171;32;20084;-73
2021/04/23 03:41:10;;;;;;;9.55;2.35;;;;;;;4.69;55.97;101962.53;4412932;32;20089;-74
2021/04/23 03:43:37;;;;;;;9.93;2.53;;;;;;;4.69;56.27;101970.88;4409417;32;20082;-73
2021/04/23 03:46:04;;;;;;;5.12;1.90;;;;;;;4.60;56.86;101964.75;4410906;32;20445;-74
2021/04/23 03:48:31;;;;;;;12.77;1.83;;;;;;;4.58;56.96;101962.31;4415170;32;20439;-74
2021/04/23 03:50:57;;;;;;;9.57;2.15;;;;;;;4.58;56.94;101969.88;4413576;32;20414;-74
2021/04/23 03:53:23;;;;;;;8.68;2.30;;;;;;;4.57;57.19;101965.47;4412801;32;21241;-74
2021/04/23 03:55:52;;;;;;;10.95;2.10;;;;;;;4.54;57.27;101957.84;4413616;32;20101;-74
2021/04/23 03:58:20;;;;;;;11.48;3.30;;;;;;;4.50;57.57;101957.75;4410421;32;20058;-74
2021/04/23 04:00:50;;;;;;;12.45;2.33;;;;;;;4.54;57.64;101964.22;4412044;32;20401;-74
2021/04/23 04:03:17;;;;;;;7.50;2.35;;;;;;;4.63;57.66;101959.22;4412800;32;20505;-74
2021/04/23 04:05:43;;;;;;;10.95;2.30;;;;;;;4.60;57.88;101954.38;4410291;32;20477;-74
2021/04/23 04:08:10;;;;;;;9.10;2.60;;;;;;;4.59;57.95;101958.34;4411159;32;20152;-73
2021/04/23 04:10:37;;;;;;;12.00;2.60;;;;;;;4.53;58.39;101965.37;4411464;32;20112;-75
2021/04/23 04:13:03;;;;;;;6.12;2.60;;;;;;;4.49;58.64;101958.94;4412116;32;20021;-73
2021/04/23 04:15:29;;;;;;;10.18;3.05;;;;;;;4.51;58.71;101953.78;4410686;32;20070;-73
2021/04/23 04:17:55;;;;;;;19.10;2.67;;;;;;;4.53;58.69;101959.00;4413588;32;20342;-74
2021/04/23 04:20:24;;;;;;;16.05;2.55;;;;;;;4.49;58.84;101950.59;4410632;32;20099;-74
2021/04/23 04:22:50;;;;;;;17.58;3.53;;;;;;;4.45;59.09;101951.69;4411528;32;20029;-73
2021/04/23 04:25:26;;;;;;;9.55;2.80;;;;;;;4.42;58.80;101952.44;4414437;32;20026;-74
2021/04/23 04:27:54;;;;;;;16.42;3.60;;;;;;;4.44;59.16;101953.66;4412507;32;20026;-74
2021/04/23 04:30:20;;;;;;;17.08;2.87;;;;;;;4.38;59.48;101951.56;4409564;32;20115;-75
2021/04/23 04:32:46;;;;;;;13.70;3.47;;;;;;;4.33;59.91;101949.06;4411525;32;20542;-74
2021/04/23 04:35:12;;;;;;;19.33;3.03;;;;;;;4.37;59.93;101950.75;4414324;32;20029;-74
2021/04/23 04:37:37;;;;;;;14.93;3.58;;;;;;;4.39;59.85;101944.78;4412025;32;20150;-73
2021/04/23 04:40:06;;;;;;;11.00;2.80;;;;;;;4.44;59.68;101955.63;4410140;32;20110;-75
2021/04/23 04:42:32;;;;;;;10.45;3.08;;;;;;;4.37;60.28;101944.34;4408578;32;20106;-74
2021/04/23 04:45:01;;;;;;;16.48;3.10;;;;;;;4.31;60.63;101948.59;4411583;32;20038;-74
2021/04/23 04:47:29;;;;;;;11.40;2.22;;;;;;;4.29;60.80;101957.31;4408627;32;20188;-74
2021/04/23 04:49:58;;;;;;;10.48;2.85;;;;;;;4.35;60.56;101952.28;4412379;32;20366;-73
2021/04/23 04:52:24;;;;;;;15.00;2.87;;;;;;;4.34;60.83;101953.44;4411007;32;20188;-73
2021/04/23 04:54:50;;;;;;;11.85;2.87;;;;;;;4.35;61.06;101953.06;4414253;32;20069;-73
2021/04/23 04:57:16;;;;;;;11.77;3.10;;;;;;;4.35;61.29;101955.84;4410180;32;20091;-73
2021/04/23 04:59:44;;;;;;;12.63;2.78;;;;;;;4.34;61.38;101959.84;4411604;32;20042;-73
2021/04/23 05:02:10;;;;;;;17.80;2.58;;;;;;;4.34;61.67;101962.63;4410670;32;20417;-74
2021/04/23 05:04:36;;;;;;;18.02;2.83;;;;;;;4.36;61.44;101965.84;4412303;32;20600;-74
2021/04/23 05:07:02;;;;;;;14.70;3.30;;;;;;;4.33;61.74;101968.56;4410273;32;20086;-74
2021/04/23 05:09:28;;;;;;;13.25;2.95;;;;;;;4.41;61.49;101968.31;4411651;32;20072;-75
2021/04/23 05:11:54;;;;;;;20.23;2.83;;;;;;;4.47;61.35;101966.84;4408980;32;20070;-74
2021/04/23 05:14:19;;;;;;;13.10;3.00;;;;;;;4.43;61.65;101966.00;4411275;32;20074;-73
2021/04/23 05:16:46;;;;;;;12.02;2.67;;;;;;;4.46;61.57;101968.03;4412256;32;20576;-73
2021/04/23 05:19:12;;;;;;;8.10;2.62;;;;;;;4.50;61.70;101968.09;4411301;32;20099;-72
2021/04/23 05:21:38;;;;;;;13.20;2.75;;;;;;;4.51;61.92;101969.72;4409001;32;20096;-72
2021/04/23 05:24:04;;;;;;;15.43;2.83;;;;;;;4.56;61.96;101973.03;4412446;32;20073;-73
2021/04/23 05:26:31;;;;;;;13.75;2.85;;;;;;;4.60;61.78;101967.53;4410471;32;20090;-73
2021/04/23 05:28:57;;;;;;;21.73;3.08;;;;;;;4.73;61.75;101971.75;4411798;32;20122;-73
2021/04/23 05:31:23;;;;;;;13.35;2.87;;;;;;;4.87;61.06;101972.81;4414590;32;20574;-73
2021/04/23 05:33:49;;;;;;;27.08;3.65;;;;;;;4.97;60.83;101980.56;4413100;32;20089;-73
2021/04/23 05:36:14;;;;;;;21.87;3.00;;;;;;;5.05;60.87;101973.97;4415134;32;20070;-74
2021/04/23 05:38:40;;;;;;;11.68;4.55;;;;;;;5.09;61.11;101985.19;4413580;32;20056;-73
2021/04/23 05:41:06;;;;;;;19.30;3.72;;;;;;;5.21;60.67;101982.19;4411505;32;20083;-73
2021/04/23 05:43:33;;;;;;;10.98;3.47;;;;;;;5.35;60.14;101993.63;4412727;32;20049;-73
2021/04/23 05:45:58;;;;;;;16.23;3.67;;;;;;;5.38;60.19;101987.28;4414205;32;20066;-74
2021/04/23 05:48:24;;;;;;;20.10;3.87;;;;;;;5.45;60.04;101991.00;4415459;32;20096;-75
2021/04/23 05:50:50;;;;;;;19.33;4.05;;;;;;;5.51;59.83;101994.28;4415801;32;20366;-74
2021/04/23 05:53:16;;;;;;;11.05;3.25;;;;;;;5.66;59.54;101996.94;4413993;32;20531;-73
2021/04/23 05:55:43;;;;;;;14.27;3.97;;;;;;;5.71;59.29;101999.41;4414081;32;20389;-72
2021/04/23 05:58:10;;;;;;;16.65;4.18;;;;;;;5.83;58.97;101996.44;4413749;32;20378;-73
2021/04/23 06:00:40;;;;;;;15.98;3.47;;;;;;;5.93;58.90;101992.19;4412171;32;20484;-73
2021/04/23 06:03:06;;;;;;;14.32;3.62;;;;;;;5.99;58.83;101997.06;4412466;32;20230;-72
2021/04/23 06:05:33;;;;;;;14.20;2.80;;;;;;;6.08;58.76;101994.78;4413243;32;20034;-73
2021/04/23 06:08:03;;;;;;;12.43;3.40;;;;;;;6.20;58.09;101995.75;4409936;32;20057;-73
2021/04/23 06:10:30;;;;;;;12.95;4.12;;;;;;;6.31;57.96;102000.31;4413004;32;20070;-74
2021/04/23 06:12:57;;;;;;;19.90;5.05;;;;;;;6.48;57.70;101998.94;4412658;32;20034;-73
2021/04/23 06:15:23;;;;;;;19.65;4.15;;;;;;;6.60;57.39;102007.06;4410975;32;20457;-73
2021/04/23 06:17:49;;;;;;;21.52;4.12;;;;;;;6.70;57.00;102009.19;4412163;32;20134;-74
2021/04/23 06:20:19;;;;;;;22.83;4.78;;;;;;;6.81;56.70;102002.53;4414404;32;20088;-74
2021/04/23 06:22:46;;;;;;;17.08;4.28;;;;;;;6.97;56.50;102010.72;4411782;32;20068;-73
2021/04/23 06:25:14;;;;;;;24.02;4.90;;;;;;;7.05;56.15;102006.78;4413004;32;20061;-73
2021/04/23 06:27:42;;;;;;;17.17;4.72;;;;;;;7.19;56.21;102007.75;4410660;32;20073;-74
2021/04/23 06:30:11;;;;;;;24.60;6.80;;;;;;;7.30;55.76;102005.06;4411236;32;20062;-73
2021/04/23 06:32:40;;;;;;;19.95;4.35;;;;;;;7.47;55.48;102004.41;4414436;32;20104;-73
2021/04/23 06:35:06;;;;;;;20.60;5.30;;;;;;;7.54;55.22;102004.44;4411647;32;20054;-75
2021/04/23 06:37:33;;;;;;;21.67;4.60;;;;;;;7.65;54.92;102002.56;4410160;32;20378;-74
2021/04/23 06:39:59;;;;;;;15.88;4.12;;;;;;;7.81;54.44;102008.66;4408102;32;20519;-75
2021/04/23 06:42:24;;;;;;;24.77;4.68;;;;;;;7.93;54.21;101999.94;4405873;32;20081;-75
2021/04/23 06:44:50;;;;;;;14.20;3.85;;;;;;;8.08;54.04;102010.84;4406242;32;20077;-73
2021/04/23 06:47:16;;;;;;;29.50;5.32;;;;;;;8.25;53.23;102008.59;4408127;32;20081;-73
2021/04/23 06:49:42;;;;;;;22.85;4.47;;;;;;;8.36;52.96;102015.88;4408829;32;20073;-72
2021/04/23 06:52:08;;;;;;;28.58;5.70;;;;;;;8.57;52.78;102018.78;4412428;32;20100;-75
2021/04/23 06:54:34;;;;;;;21.58;5.40;;;;;;;8.69;52.42;102017.63;4407952;32;20440;-74
2021/04/23 06:56:59;;;;;;;22.77;4.70;;;;;;;8.90;51.91;102018.50;4408518;32;20450;-75
2021/04/23 06:59:25;;;;;;;23.27;4.70;;;;;;;9.09;51.55;102018.16;4408372;32;20462;-75
2021/04/23 07:01:51;;;;;;;12.85;4.10;;;;;;;9.26;51.08;102017.38;4400535;32;20034;-74
2021/04/23 07:04:17;;;;;;;21.08;4.82;;;;;;;9.48;50.20;102024.62;4400843;32;20050;-74
2021/04/23 07:06:42;;;;;;;20.08;4.85;;;;;;;9.54;49.75;102030.66;4402496;32;20105;-74
2021/04/23 07:09:09;;;;;;;19.77;4.55;;;;;;;9.77;49.51;102020.63;4408171;32;20080;-75
2021/04/23 07:11:35;;;;;;;24.80;5.35;;;;;;;9.94;48.68;102024.62;4406832;32;20113;-74
2021/04/23 07:14:02;;;;;;;17.75;5.45;;;;;;;10.10;47.82;102025.06;4404769;32;20099;-75
2021/04/23 07:16:29;;;;;;;15.43;4.10;;;;;;;10.27;46.86;102029.81;4406588;32;20085;-75
2021/04/23 07:18:55;;;;;;;17.98;4.47;;;;;;;10.48;45.98;102028.97;4405136;32;20165;-74
2021/04/23 07:21:21;;;;;;;21.50;3.83;;;;;;;10.63;45.03;102030.53;4403317;32;20034;-75
2021/04/23 07:23:46;;;;;;;13.02;4.15;;;;;;;10.86;44.00;102034.44;4401666;32;20635;-74
2021/04/23 07:26:12;;;;;;;16.27;4.35;;;;;;;11.03;42.74;102018.66;4405841;32;20223;-74
2021/04/23 07:28:38;;;;;;;10.52;2.83;;;;;;;11.30;41.57;102025.34;4403707;32;20718;-74
2021/04/23 07:31:04;;;;;;;23.20;6.35;;;;;;;11.49;36.99;102016.34;4401371;32;20149;-74
2021/04/23 07:33:29;;;;;;;12.90;5.43;;;;;;;11.68;36.69;102024.28;4399217;32;20741;-73
2021/04/23 07:35:55;;;;;;;11.45;3.10;;;;;;;11.86;36.25;102022.94;4405563;32;20162;-74
2021/04/23 07:38:21;;;;;;;15.32;2.70;;;;;;;11.98;35.82;102028.06;4404430;32;20155;-75
2021/04/23 07:40:47;;;;;;;16.67;2.95;;;;;;;12.04;34.32;102032.03;4402883;32;20815;-76
2021/04/23 07:43:13;;;;;;;6.68;1.92;;;;;;;12.28;33.98;102027.34;4406266;32;20110;-76
2021/04/23 07:45:39;;;;;;;13.07;3.45;;;;;;;12.54;33.50;102032.31;4406341;32;20482;-76
2021/04/23 07:48:06;;;;;;;13.20;2.42;;;;;;;12.63;33.41;102037.44;4406844;32;20088;-76
2021/04/23 07:50:32;;;;;;;13.02;2.60;;;;;;;12.80;33.04;102025.94;4405634;32;20467;-74
2021/04/23 07:52:58;;;;;;;22.98;3.50;;;;;;;12.93;32.53;102035.44;4405374;32;20069;-75
2021/04/23 07:55:24;;;;;;;10.10;3.60;;;;;;;13.10;32.20;102039.31;4404176;32;20083;-76
2021/04/23 07:57:53;;;;;;;13.88;3.87;;;;;;;13.22;31.62;102033.87;4405296;32;22096;-74
2021/04/23 08:00:22;;;;;;;13.52;2.47;;;;;;;13.39;31.02;102041.31;4405898;32;20081;-75
2021/04/23 08:02:48;;;;;;;9.02;2.72;;;;;;;13.43;30.71;102044.88;4403618;32;20096;-76
2021/04/23 08:05:17;;;;;;;14.95;2.00;;;;;;;13.54;29.89;102041.88;4404161;32;20375;-76
2021/04/23 08:07:44;;;;;;;14.38;2.53;;;;;;;13.71;29.55;102046.44;4405417;32;20049;-74
2021/04/23 08:10:13;;;;;;;6.53;2.08;;;;;;;13.89;29.19;102044.94;4402879;32;20080;-74
2021/04/23 08:12:39;;;;;;;10.10;1.87;;;;;;;14.11;28.97;102044.56;4402972;32;20026;-74
2021/04/23 08:15:07;;;;;;;4.37;1.58;;;;;;;14.12;28.12;102044.13;4402543;32;20069;-75
2021/04/23 08:17:32;;;;;;;9.20;1.80;;;;;;;14.21;27.42;102038.72;4404256;32;20073;-74
2021/04/23 08:19:58;;;;;;;4.85;1.50;;;;;;;14.25;27.53;102041.50;4404070;32;20068;-76
2021/04/23 08:22:25;;;;;;;7.53;2.08;;;;;;;14.23;27.75;102044.75;4412593;32;20448;-75
2021/04/23 08:24:51;;;;;;;9.95;1.80;;;;;;;14.27;27.88;102045.50;4401856;32;20060;-75
2021/04/23 08:27:16;;;;;;;7.43;2.08;;;;;;;14.44;27.87;102046.38;4403569;32;20429;-76
2021/04/23 08:29:42;;;;;;;15.55;2.00;;;;;;;14.67;27.94;102044.31;4402288;32;20473;-74
2021/04/23 08:32:07;;;;;;;10.93;2.00;;;;;;;14.90;27.73;102055.56;4400675;32;20034;-73
2021/04/23 08:34:33;;;;;;;11.52;1.85;;;;;;;15.08;27.25;102053.16;4401534;32;20234;-75
2021/04/23 08:36:59;;;;;;;7.78;1.83;;;;;;;15.23;27.28;102045.94;4405233;32;20069;-73
2021/04/23 08:39:25;;;;;;;7.40;1.77;;;;;;;15.38;27.14;102041.59;4402433;32;20742;-75
2021/04/23 08:41:51;;;;;;;7.78;1.87;;;;;;;15.76;27.21;102051.19;4402948;32;20114;-75
2021/04/23 08:44:16;;;;;;;5.20;1.67;;;;;;;16.07;26.95;102045.94;4406867;32;20484;-75
2021/04/23 08:46:42;;;;;;;5.60;1.90;;;;;;;16.16;26.61;102048.16;4413575;32;21527;-74
2021/04/23 08:49:08;;;;;;;9.15;1.70;;;;;;;16.25;26.62;102049.12;4404106;32;20034;-74
2021/04/23 08:51:35;;;;;;;12.32;2.70;;;;;;;16.19;26.92;102035.91;4404676;32;20131;-74
2021/04/23 08:54:02;;;;;;;10.27;1.92;;;;;;;16.37;26.41;102037.03;4403460;32;20039;-74
2021/04/23 08:56:28;;;;;;;7.28;1.42;;;;;;;16.58;26.52;102038.50;4403643;32;20132;-74
2021/04/23 08:58:54;;;;;;;3.62;1.48;;;;;;;16.87;25.63;102040.09;4406634;32;20141;-74
2021/04/23 09:01:20;;;;;;;5.22;1.30;;;;;;;16.54;25.08;102041.44;4405132;32;20068;-75
2021/04/23 09:03:46;;;;;;;8.70;2.00;;;;;;;16.62;23.86;102031.47;4407492;32;20769;-76
2021/04/23 09:06:16;;;;;;;11.38;1.80;;;;;;;16.79;24.31;102043.59;4407424;32;20077;-76
2021/04/23 09:11:44;;;;;;;17.52;2.67;;;;;;;17.92;24.39;102040.88;3973489;32;15077847;-76
2021/04/23 09:19:30;;;;;;;10.48;1.95;;;;;;;18.42;23.10;102038.72;3975463;32;15024015;-75
2021/04/23 09:22:00;;;;;;;7.32;1.55;;;;;;;18.42;23.10;102038.72;4432852;32;20094;-75
2021/04/23 09:24:33;;;;;;;6.18;2.17;;;;;;;18.17;23.21;102032.28;4432560;32;20087;-75
2021/04/23 09:27:07;;;;;;;9.48;2.53;;;;;;;18.26;22.82;102032.38;4432653;32;20354;-74
2021/04/23 09:29:35;;;;;;;8.77;2.45;;;;;;;17.97;23.65;102028.91;4436241;32;20061;-74
2021/04/23 09:32:18;;;;;;;6.35;1.87;;;;;;;17.90;23.96;102018.53;4433556;32;20067;-75
2021/04/23 09:35:11;;;;;;;5.15;1.83;;;;;;;17.89;24.16;102023.44;4434220;32;20089;-75
2021/04/23 09:37:43;;;;;;;11.73;2.47;;;;;;;17.96;24.39;102016.72;4435776;32;20041;-73
2021/04/23 09:45:29;;;;;;;13.25;2.20;;;;;;;19.03;24.09;102029.53;3978816;32;15022071;-77
2021/04/23 09:47:56;;;;;;;8.63;2.15;;;;;;;19.03;24.09;102029.53;4434678;32;20083;-76
2021/04/23 09:50:29;;;;;;;11.25;3.80;;;;;;;18.56;23.50;102034.56;4429152;32;20189;-75
2021/04/23 09:52:56;;;;;;;15.00;3.25;;;;;;;18.86;23.78;102028.12;4432912;32;20110;-75
2021/04/23 09:55:27;;;;;;;15.02;2.42;;;;;;;19.11;23.36;102027.97;4429611;32;20136;-75
2021/04/23 10:00:35;;;;;;;12.57;2.80;;;;;;;19.14;23.33;102030.69;3985902;31;15017103;-74
2021/04/23 10:03:03;;;;;;;7.20;1.95;;;;;;;19.21;23.61;102026.78;4438737;32;20187;-73
2021/04/23 10:08:09;;;;;;;6.70;2.25;;;;;;;20.13;21.71;102038.12;3991143;31;15018326;-75
2021/04/23 10:10:36;;;;;;;4.25;2.15;;;;;;;20.13;21.71;102038.12;4443264;32;20052;-73
2021/04/23 10:13:05;;;;;;;12.10;2.45;;;;;;;19.86;21.85;102035.16;4445273;32;20041;-74
2021/04/23 10:18:14;;;;;;;12.98;2.15;;;;;;;20.87;21.25;102036.41;3967752;32;15023246;-75
2021/04/23 10:20:42;;;;;;;5.37;2.08;;;;;;;20.87;21.25;102036.41;4420329;32;20103;-76
2021/04/23 10:23:10;;;;;;;9.95;2.05;;;;;;;20.61;19.47;102031.47;4419548;32;20104;-75
2021/04/23 10:25:36;;;;;;;10.38;2.92;;;;;;;20.74;19.55;102044.34;4419315;32;20114;-75
2021/04/23 10:28:08;;;;;;;7.30;1.80;;;;;;;20.91;19.16;102031.28;4419851;32;20128;-75
2021/04/23 10:30:37;;;;;;;11.63;2.35;;;;;;;21.33;19.08;102029.28;4417949;32;20061;-76
2021/04/23 10:33:07;;;;;;;8.32;1.80;;;;;;;21.37;18.54;102035.66;4418058;32;20042;-77
2021/04/23 10:35:33;;;;;;;6.05;1.98;;;;;;;21.43;18.98;102036.59;4420055;32;20387;-76
2021/04/23 10:38:04;;;;;;;7.40;1.90;;;;;;;21.61;18.69;102036.53;4417821;32;20038;-76
2021/04/23 10:40:32;;;;;;;6.35;1.73;;;;;;;21.73;18.16;102031.06;4420190;32;20077;-76
2021/04/23 10:43:01;;;;;;;7.45;2.12;;;;;;;21.86;18.13;102032.44;4419639;32;20727;-77
2021/04/23 10:50:48;;;;;;;7.60;1.75;;;;;;;22.61;18.27;102033.84;3981956;32;15022784;-76
2021/04/23 10:53:20;;;;;;;7.05;1.70;;;;;;;22.61;18.27;102033.84;4432777;32;20049;-78
2021/04/23 11:04:03;;;;;;;6.15;1.65;;;;;;;24.15;16.77;102041.53;3977835;32;15023723;-76
2021/04/23 11:06:32;;;;;;;5.85;1.70;;;;;;;24.09;16.84;102037.78;4430526;32;20081;-74
2021/04/23 11:11:37;;;;;;;4.47;1.30;;;;;;;24.68;15.76;102027.56;3978400;32;15022097;-73
2021/04/23 11:14:24;;;;;;;4.32;1.58;;;;;;;24.68;15.76;102027.56;4428477;32;20356;-76
2021/04/23 11:16:53;;;;;;;12.10;1.92;;;;;;;24.43;15.74;102022.53;4438199;32;20038;-75
2021/04/23 11:22:04;;;;;;;9.20;2.37;;;;;;;25.22;15.59;102031.53;3981040;32;15022010;-77
2021/04/23 11:24:29;;;;;;;11.32;1.95;;;;;;;25.22;15.59;102031.53;4434065;32;20080;-74
2021/04/23 11:37:54;;;;;;;6.70;2.03;;;;;;;26.27;14.32;102023.66;3974595;32;15022490;-74
2021/04/23 11:42:58;;;;;;;7.15;1.90;;;;;;;26.18;15.19;102021.00;3956428;32;15724478;-76
2021/04/23 11:50:43;;;;;;;7.85;1.95;;;;;;;26.60;14.65;102012.25;3995506;31;15015699;-78
2021/04/23 11:53:12;;;;;;;5.47;1.73;;;;;;;26.60;14.65;102012.25;4440913;32;20165;-76
2021/04/23 11:55:41;;;;;;;12.23;1.80;;;;;;;26.65;14.65;102012.31;4448652;32;20037;-76
2021/04/23 11:58:09;;;;;;;8.57;1.95;;;;;;;26.83;14.08;102008.12;4448173;32;20112;-77
2021/04/23 12:00:37;;;;;;;6.82;2.00;;;;;;;26.87;14.25;102012.34;4446939;32;20810;-76
2021/04/23 12:03:07;;;;;;;4.55;2.00;;;;;;;26.69;14.58;102009.19;4434567;32;20085;-76
2021/04/23 12:08:15;;;;;;;8.05;2.12;;;;;;;27.26;14.93;101992.19;3970521;32;15016376;-76
2021/04/23 12:13:30;;;;;;;5.10;1.80;;;;;;;27.52;14.67;101989.03;3953254;32;15733569;-77
2021/04/23 12:16:00;;;;;;;13.40;2.30;;;;;;;27.52;14.67;101989.03;4428902;32;20177;-75
2021/04/23 12:18:27;;;;;;;5.22;2.08;;;;;;;27.07;14.89;101994.78;4427644;32;20145;-76
2021/04/23 12:20:56;;;;;;;7.70;2.20;;;;;;;25.87;15.51;102001.66;4427943;32;20217;-75
2021/04/23 12:23:24;;;;;;;11.18;2.53;;;;;;;26.06;15.78;101993.38;4427377;32;20069;-75
2021/04/23 12:31:21;;;;;;;9.38;2.55;;;;;;;26.80;15.47;101986.06;3988226;31;15014163;-74
2021/04/23 12:39:24;;;;;;;11.30;2.12;;;;;;;27.05;15.24;101982.16;3985412;32;15022429;-75
2021/04/23 12:44:31;;;;;;;7.18;2.12;;;;;;;27.15;15.08;101978.50;3981786;32;15022019;-74
2021/04/23 12:47:00;;;;;;;7.15;1.60;;;;;;;27.15;15.08;101978.50;4431370;32;20037;-76
2021/04/23 12:49:31;;;;;;;5.43;1.67;;;;;;;26.01;15.66;101963.19;4430528;32;20911;-75
2021/04/23 12:52:16;;;;;;;9.00;2.40;;;;;;;26.39;15.50;101974.12;4427653;32;20042;-75